Malczyce, Poland
Current Conditions -  °F | °C
As of 11:30 AM on Monday 20 Oct 2014 (Local Time) from EPWR Reporting Station
Broken Clouds Broken Clouds  
Wind Chill: 63°   Ceiling: 2600
Heat Index: 63°   Visibility: 6mi
Dew Point: 54°   Wind: 14mph
Humidity: 72%   Direction: 290°WNW
Pressure: 29.94"   Gusts: 25mph
Location:  51.22°N, 16.48°E
Report Text: EPWR 200930Z 29012G22KT 260V320 9999 BKN026 17/12 Q1014
Loading
Personal Weather Stations






























Interactive Weather Map
Tropical Storm Tracking
New forecast layout! Learn more

10-Day Weather Forecast

Advertisements
Track Severe Weather on mobile